Flight Track Log - Related Links

Times and Time Zones

All times are in EDT time to prevent confusion due to time zone crossing. See the AWI3970 flight status page for this flight to view local times or setup timezone preferences in your user account.

Time Position Orientation Groundspeed Altitude Reporting Facility
EDT Latitude Longitude Course Direction KTS MPH feet Rate Location/Type
Sun 23:00:44 39.8667 -75.2667 37° Northeast 155 178 600  Level Philadelphia TRACON
Sun 23:01:38 39.8333 -75.3167 229° Southwest 175 201 2,700 2,100 Climbing Philadelphia TRACON
Sun 23:02:44 39.7833 -75.3667 218° Southwest 272 313 4,800 2,143 Climbing Philadelphia TRACON
Sun 23:03:00 39.7956 -74.7612 105° East  Level FlightAware Approximate
Sun 23:03:44 39.7167 -75.3333 159° South 290 334 7,200  Level Philadelphia TRACON
Sun 23:04:00 39.8199 -74.6635 37° Northeast  Level FlightAware Approximate
Sun 23:05:00 39.8950 -74.5884 37° Northeast  Level FlightAware Approximate
Sun 23:06:04 39.7364 -75.0900 84° East 326 375 11,200  Level New York Center
Sun 23:07:05 39.7561 -74.9508 80° East 346 398 12,000 397 Climbing New York Center
Sun 23:08:05 39.7747 -74.8306 79° East 370 426 12,000 1,050 Level New York Center
Sun 23:09:05 39.8125 -74.7003 69° East 380 437 14,100 2,034 Climbing New York Center
Sun 23:10:03 39.8989 -74.6131 38° Northeast 362 417 16,000 1,678 Climbing New York Center
Sun 23:11:03 39.9892 -74.5233 37° Northeast 378 435 17,400 1,388 Climbing New York Center
Sun 23:12:04 40.0903 -74.4256 36° Northeast 404 465 18,800 1,190 Climbing New York Center
Sun 23:13:04 40.1764 -74.3378 38° Northeast 419 482 19,800 1,109 Climbing New York Center
Sun 23:14:03 40.2750 -74.2450 36° Northeast 430 495 21,000 1,210 Climbing New York Center
Sun 23:15:03 40.3739 -74.1464 37° Northeast 435 501 22,200 1,082 Climbing New York Center
Sun 23:16:05 40.4764 -74.0506 35° Northeast 440 506 23,200 836 Climbing New York Center
Sun 23:17:05 40.5772 -73.9489 37° Northeast 445 512 23,900 403 Climbing New York Center
Sun 23:18:04 40.6819 -73.8469 36° Northeast 450 518 24,000 50 Climbing New York Center
Sun 23:19:06 40.8017 -73.7317 36° Northeast 466 536 24,000 -207 Level New York Center
Sun 23:20:29 40.9547 -73.5750 38° Northeast 464 534 23,500 -387 Descending Boston Center
Sun 23:21:41 41.0633 -73.5247 19° North 453 521 23,000 -500 Descending Boston Center
Sun 23:22:41 41.2097 -73.4719 15° North 453 521 22,400 -800 Descending Boston Center
Sun 23:23:41 41.3289 -73.4297 15° North 448 516 21,400 -1,000 Descending Boston Center
Sun 23:24:41 41.4397 -73.3925 14° North 423 487 20,400 -950 Descending Boston Center
Sun 23:25:41 41.5483 -73.3553 14° North 401 461 19,500 -1,100 Descending Boston Center
Sun 23:26:41 41.6653 -73.3406 North 386 444 18,200 -1,350 Descending Boston Center
Sun 23:27:41 41.7672 -73.3753 346° North 381 438 16,800 -1,459 Descending Boston Center
Sun 23:28:32 41.8419 -73.4125 340° North 379 436 15,500 -1,550 Descending Boston Center
Sun 23:29:41 41.9539 -73.4561 344° North 355 409 13,700 -1,615 Descending Boston Center
Sun 23:30:42 42.0453 -73.4969 342° North 335 386 12,000 -1,282 Descending Boston Center
Sun 23:31:52 42.1469 -73.5461 340° North 339 390 10,900 -555 Descending Boston Center
Sun 23:32:41 42.2133 -73.5894 334° Northwest 335 386 10,900 -826 Level Boston Center
Sun 23:33:41 42.2939 -73.6386 336° Northwest 332 382 9,400 -1,850 Descending Boston Center
Sun 23:34:41 42.3686 -73.6822 337° Northwest 297 342 7,200 -2,200 Descending Boston Center
Sun 23:35:41 42.4431 -73.7286 335° Northwest 281 323 5,000 -1,909 Descending Boston Center
Sun 23:36:53 42.5197 -73.7753 336° Northwest 253 291 3,000 -1,667 Descending Boston Center

Login

Don't have an account? Register now (free) for customized features, flight alerts, and more!